Time;durP1;ratioP1;P1;durP2;ratioP2;P2;SDS_P1;SDS_P2;PMS_P1;PMS_P2;Temp;Humidity;BMP_temperature;BMP_pressure;BME280_temperature;BME280_humidity;BME280_pressure;Samples;Min_cycle;Max_cycle;Signal;HPM_P1;HPM_P2
2023/02/20 00:01:25;;;;;;;10.45;5.97;;;;;;;12.10;48.95;99515.78;4966038;28;20019;-93
2023/02/20 00:03:51;;;;;;;8.18;5.68;;;;;;;12.04;48.84;99505.28;4964791;28;20030;-93
2023/02/20 00:06:16;;;;;;;7.30;5.53;;;;;;;12.04;49.36;99516.09;4965103;28;20104;-94
2023/02/20 00:08:42;;;;;;;11.30;5.93;;;;;;;12.02;49.41;99518.25;4964482;28;20025;-93
2023/02/20 00:11:08;;;;;;;8.02;5.30;;;;;;;12.00;49.32;99534.72;4964512;28;20468;-94
2023/02/20 00:13:33;;;;;;;9.65;4.72;;;;;;;11.92;49.34;99524.47;4964750;28;20026;-93
2023/02/20 00:16:02;;;;;;;9.18;5.53;;;;;;;11.80;49.26;99524.72;4965312;28;20030;-93
2023/02/20 00:18:28;;;;;;;7.88;4.90;;;;;;;11.86;49.39;99512.03;4966219;28;20409;-93
2023/02/20 00:20:53;;;;;;;8.45;5.45;;;;;;;11.86;49.86;99514.75;4964153;28;20038;-93
2023/02/20 00:23:21;;;;;;;7.63;5.38;;;;;;;11.71;49.68;99507.50;4964581;28;20026;-94
2023/02/20 00:25:47;;;;;;;9.35;5.38;;;;;;;11.70;49.85;99503.16;4964501;28;20022;-93
2023/02/20 00:28:13;;;;;;;10.27;5.07;;;;;;;11.69;50.27;99507.75;4964387;28;20112;-94
2023/02/20 00:30:41;;;;;;;7.57;5.18;;;;;;;11.65;50.23;99505.88;4964763;28;20037;-93
2023/02/20 00:33:07;;;;;;;10.70;5.43;;;;;;;11.52;50.19;99497.28;4965623;28;20488;-94
2023/02/20 00:35:32;;;;;;;8.23;5.15;;;;;;;11.61;50.15;99502.13;4963407;28;20033;-93
2023/02/20 00:37:58;;;;;;;7.32;4.93;;;;;;;11.68;50.12;99510.72;4964210;28;20029;-93
2023/02/20 00:40:24;;;;;;;7.13;5.38;;;;;;;11.55;50.24;99506.69;4964303;28;20041;-94
2023/02/20 00:42:52;;;;;;;10.77;5.30;;;;;;;11.59;50.82;99523.16;4964853;28;20559;-95
2023/02/20 00:45:18;;;;;;;8.27;5.30;;;;;;;11.54;51.00;99518.56;4963764;28;20457;-93
2023/02/20 00:47:46;;;;;;;8.73;5.57;;;;;;;11.42;50.91;99497.28;4964026;28;20117;-93
2023/02/20 00:50:15;;;;;;;8.10;5.30;;;;;;;11.51;51.09;99524.50;4965625;28;20116;-93
2023/02/20 00:52:41;;;;;;;9.55;5.55;;;;;;;11.45;51.53;99506.69;4965284;28;20033;-93
2023/02/20 00:55:09;;;;;;;8.18;5.15;;;;;;;11.44;51.32;99503.22;4964865;28;20057;-93
2023/02/20 00:57:38;;;;;;;8.82;5.18;;;;;;;11.42;51.34;99507.25;4964670;28;20026;-93
2023/02/20 01:00:09;;;;;;;8.27;4.82;;;;;;;11.47;51.21;99516.13;4964410;28;20049;-94
2023/02/20 01:02:34;;;;;;;10.18;5.03;;;;;;;11.41;51.32;99505.63;4963496;28;20026;-94
2023/02/20 01:05:09;;;;;;;10.00;5.10;;;;;;;11.47;51.47;99524.22;4963845;28;20122;-93
2023/02/20 01:07:34;;;;;;;8.23;5.50;;;;;;;11.46;51.43;99519.91;4966481;28;20092;-95
2023/02/20 01:10:00;;;;;;;7.20;5.43;;;;;;;11.43;51.55;99516.94;4964088;28;20026;-93
2023/02/20 01:12:26;;;;;;;7.97;4.75;;;;;;;11.24;51.98;99506.72;4964636;28;20030;-93
2023/02/20 01:14:52;;;;;;;9.35;4.85;;;;;;;11.40;51.87;99534.47;4964666;28;20034;-93
2023/02/20 01:17:17;;;;;;;12.15;5.57;;;;;;;11.21;51.94;99507.25;4963641;28;20042;-93
2023/02/20 01:19:43;;;;;;;7.55;4.95;;;;;;;11.16;52.01;99504.53;4963638;28;20030;-93
2023/02/20 01:22:09;;;;;;;12.90;4.97;;;;;;;11.24;52.43;99514.78;4963287;28;20026;-94
2023/02/20 01:24:34;;;;;;;5.95;4.50;;;;;;;11.15;52.12;99504.84;4964141;28;20026;-92
2023/02/20 01:27:00;;;;;;;7.35;4.57;;;;;;;11.14;52.41;99517.47;4964439;28;20084;-94
2023/02/20 01:29:35;;;;;;;7.43;4.25;;;;;;;11.09;52.47;99512.91;4963138;28;20030;-94
2023/02/20 01:32:01;;;;;;;6.60;4.45;;;;;;;11.15;52.31;99529.09;4966542;28;20026;-95
2023/02/20 01:34:29;;;;;;;8.88;4.57;;;;;;;11.11;52.93;99524.22;4963310;28;20045;-93
2023/02/20 01:36:59;;;;;;;8.70;5.57;;;;;;;11.01;53.38;99512.63;4963962;28;20514;-94
2023/02/20 01:39:27;;;;;;;6.55;4.45;;;;;;;10.99;52.91;99518.28;4964089;28;20030;-94
2023/02/20 01:42:04;;;;;;;8.75;4.88;;;;;;;11.01;53.00;99520.72;4964455;28;20029;-93
2023/02/20 01:44:32;;;;;;;6.65;4.07;;;;;;;10.94;53.08;99498.63;4963727;28;20037;-93
2023/02/20 01:46:58;;;;;;;8.07;4.63;;;;;;;10.82;53.31;99491.59;4962822;28;20508;-92
2023/02/20 01:49:39;;;;;;;7.95;4.38;;;;;;;10.83;53.87;99487.84;4962716;28;20481;-93
2023/02/20 01:52:21;;;;;;;8.27;4.13;;;;;;;10.86;53.67;99500.75;4965081;28;20034;-93
2023/02/20 01:55:08;;;;;;;7.25;4.45;;;;;;;10.87;53.81;99502.38;4963276;28;20023;-93
2023/02/20 01:57:37;;;;;;;9.25;4.25;;;;;;;10.74;54.17;99469.75;4967044;28;20038;-93
2023/02/20 02:00:11;;;;;;;8.95;4.18;;;;;;;10.75;54.26;99485.66;4968332;28;20022;-93
2023/02/20 02:02:38;;;;;;;9.10;5.60;;;;;;;10.75;54.52;99496.44;4968629;28;20022;-94
2023/02/20 02:05:19;;;;;;;8.23;4.50;;;;;;;10.76;54.47;99499.94;4966681;28;20069;-93
2023/02/20 02:07:51;;;;;;;7.35;4.28;;;;;;;10.71;54.05;99479.19;4968962;28;20013;-93
2023/02/20 02:10:44;;;;;;;6.78;3.90;;;;;;;10.74;54.18;99505.56;4968652;28;20069;-93
2023/02/20 02:13:13;;;;;;;6.32;3.78;;;;;;;10.69;53.92;99509.06;4985184;28;20030;-94
2023/02/20 02:15:41;;;;;;;6.75;4.47;;;;;;;10.72;53.43;99497.75;4967157;28;20030;-93
2023/02/20 02:18:29;;;;;;;6.05;3.90;;;;;;;10.81;53.42;99508.00;4967195;28;20493;-95
2023/02/20 02:21:03;;;;;;;10.40;3.92;;;;;;;10.80;54.02;99509.09;4999633;28;20564;-93
2023/02/20 02:23:56;;;;;;;6.53;4.00;;;;;;;10.76;53.34;99503.44;4998515;28;20025;-93
2023/02/20 02:26:46;;;;;;;5.43;3.45;;;;;;;10.83;52.96;99513.94;4984543;28;20023;-92
2023/02/20 02:29:49;;;;;;;5.65;3.80;;;;;;;10.79;52.62;99527.16;4983019;28;20027;-93
2023/02/20 02:32:23;;;;;;;5.32;3.60;;;;;;;10.74;52.88;99500.19;4998197;28;20026;-94
2023/02/20 02:34:58;;;;;;;5.55;3.47;;;;;;;10.65;53.04;99513.38;4983332;28;20034;-93
2023/02/20 02:37:42;;;;;;;5.30;3.50;;;;;;;10.75;52.61;99514.44;4998112;28;20033;-93
2023/02/20 02:40:13;;;;;;;5.75;3.70;;;;;;;10.67;52.62;99515.81;4982403;28;20377;-94
2023/02/20 02:43:00;;;;;;;6.05;3.38;;;;;;;10.75;52.49;99503.69;4982608;28;20045;-93
2023/02/20 02:45:37;;;;;;;5.28;3.40;;;;;;;10.71;52.75;99514.19;4982941;28;20033;-93
2023/02/20 02:48:18;;;;;;;4.15;3.17;;;;;;;10.71;52.01;99514.19;4967531;28;20022;-93
2023/02/20 02:50:45;;;;;;;4.45;3.20;;;;;;;10.59;52.58;99506.34;4998222;28;20031;-93
2023/02/20 02:53:11;;;;;;;5.22;3.33;;;;;;;10.63;52.88;99528.97;4966365;28;20034;-92
2023/02/20 02:55:37;;;;;;;6.57;3.70;;;;;;;10.61;52.91;99517.66;4965861;28;20094;-93
2023/02/20 02:58:03;;;;;;;6.25;4.03;;;;;;;10.56;53.13;99514.13;4965703;28;20049;-93
2023/02/20 03:00:56;;;;;;;6.88;4.15;;;;;;;10.62;53.17;99527.34;4966043;28;20117;-96
2023/02/20 03:03:33;;;;;;;9.30;4.70;;;;;;;10.58;53.85;99538.91;4968882;28;20027;-94
2023/02/20 03:06:05;;;;;;;6.63;4.18;;;;;;;10.65;53.55;99537.59;4966386;28;20047;-93
2023/02/20 03:08:43;;;;;;;7.63;4.47;;;;;;;10.63;53.97;99533.56;4980609;28;20033;-93
2023/02/20 03:11:13;;;;;;;8.88;4.53;;;;;;;10.50;53.77;99514.13;4981738;28;20026;-92
2023/02/20 03:16:58;;;;;;;5.32;3.72;;;;;;;10.50;53.48;99532.19;4998499;28;20056;-94
2023/02/20 03:19:41;;;;;;;5.85;3.28;;;;;;;10.21;53.76;99499.44;4989878;28;20053;-94
2023/02/20 03:22:08;;;;;;;;;;;;;;;10.43;53.47;99529.72;4984623;28;20034;-94
2023/02/20 03:24:53;;;;;;;3.92;2.90;;;;;;;10.38;53.12;99523.53;4983266;28;19964;-94
2023/02/20 03:27:29;;;;;;;8.07;3.17;;;;;;;10.30;53.65;99509.47;4971685;28;20048;-93
2023/02/20 03:29:59;;;;;;;4.93;3.13;;;;;;;10.23;53.71;99500.81;4966813;28;20026;-93
2023/02/20 03:43:27;;;;;;;5.25;2.90;;;;;;;10.20;54.08;99538.19;4983687;28;20041;-94
2023/02/20 03:46:02;;;;;;;6.20;2.80;;;;;;;10.24;53.84;99539.28;4965418;28;20038;-93
2023/02/20 03:48:43;;;;;;;4.65;2.55;;;;;;;10.16;54.25;99562.13;4965925;28;20100;-93
2023/02/20 03:51:17;;;;;;;3.90;2.55;;;;;;;10.19;54.24;99548.16;4965635;28;20060;-94
2023/02/20 03:53:43;;;;;;;3.97;2.20;;;;;;;10.07;53.78;99539.50;4965663;28;20034;-94
2023/02/20 03:56:26;;;;;;;2.95;2.13;;;;;;;10.02;54.34;99536.75;4963702;28;20089;-93
2023/02/20 03:58:59;;;;;;;4.20;2.25;;;;;;;10.03;54.72;99565.28;4965269;28;20033;-94
2023/02/20 04:01:25;;;;;;;3.97;2.17;;;;;;;10.05;54.55;99580.09;4965006;28;20026;-93
2023/02/20 04:03:51;;;;;;;4.00;2.38;;;;;;;9.99;54.81;99569.56;4964554;28;20034;-93
2023/02/20 04:06:16;;;;;;;3.50;2.00;;;;;;;10.12;54.57;99593.31;4965404;28;20038;-94
2023/02/20 04:08:45;;;;;;;3.38;2.05;;;;;;;9.94;55.00;99580.28;4964467;28;20030;-93
2023/02/20 04:11:23;;;;;;;3.78;2.10;;;;;;;10.00;55.04;99585.44;4964798;28;20030;-94
2023/02/20 04:13:49;;;;;;;5.13;2.40;;;;;;;10.11;54.66;99605.97;4966190;28;20397;-94
2023/02/20 04:16:14;;;;;;;5.32;2.20;;;;;;;9.95;55.22;99592.66;4965439;28;20035;-93
2023/02/20 04:18:40;;;;;;;4.97;1.92;;;;;;;9.94;55.57;99609.88;4964178;28;20042;-93
2023/02/20 04:21:10;;;;;;;3.03;2.08;;;;;;;9.91;55.08;99620.06;4963229;28;20408;-94
2023/02/20 04:23:37;;;;;;;3.35;2.00;;;;;;;9.86;55.30;99624.63;4964569;28;20502;-93
2023/02/20 04:26:17;;;;;;;3.45;2.05;;;;;;;9.82;55.70;99629.69;4964720;28;20480;-96
2023/02/20 04:28:43;;;;;;;2.92;2.20;;;;;;;9.70;55.35;99619.09;4965551;28;20033;-94
2023/02/20 04:31:12;;;;;;;2.83;2.00;;;;;;;9.77;54.84;99624.25;4964374;28;20030;-93
2023/02/20 04:33:38;;;;;;;3.22;2.20;;;;;;;9.89;54.51;99648.28;4963627;28;20026;-92
2023/02/20 04:36:04;;;;;;;3.35;1.92;;;;;;;9.73;54.83;99627.72;4964457;28;20022;-94
2023/02/20 04:38:30;;;;;;;2.58;1.98;;;;;;;9.80;54.84;99647.16;4964888;28;20035;-93
2023/02/20 04:40:55;;;;;;;5.57;2.33;;;;;;;9.67;54.72;99643.84;4964459;28;20057;-94
2023/02/20 04:43:21;;;;;;;2.58;1.80;;;;;;;9.61;54.43;99622.53;4963504;28;20416;-94
2023/02/20 04:45:46;;;;;;;3.50;1.85;;;;;;;9.62;54.47;99635.69;4964971;28;20026;-93
2023/02/20 04:48:12;;;;;;;2.80;2.00;;;;;;;9.68;54.58;99663.44;4965230;28;20400;-93
2023/02/20 04:50:40;;;;;;;12.80;2.75;;;;;;;9.59;54.84;99646.19;4966452;28;20034;-93
2023/02/20 04:53:08;;;;;;;3.42;2.35;;;;;;;9.55;55.66;99640.50;4964632;28;20117;-93
2023/02/20 04:55:34;;;;;;;8.88;2.05;;;;;;;9.67;55.09;99662.66;4964666;28;20057;-94
2023/02/20 04:58:02;;;;;;;7.75;3.13;;;;;;;9.50;55.57;99632.38;4964437;28;20030;-93
2023/02/20 05:00:28;;;;;;;4.63;2.45;;;;;;;9.66;55.94;99654.84;4965031;28;20404;-93
2023/02/20 05:02:54;;;;;;;3.85;2.35;;;;;;;9.53;55.96;99642.63;4964218;28;20030;-94
2023/02/20 05:05:30;;;;;;;2.80;2.33;;;;;;;9.60;56.20;99672.78;4964136;28;20054;-94
2023/02/20 05:08:04;;;;;;;4.95;2.60;;;;;;;9.68;55.62;99666.13;4966872;28;20026;-94
2023/02/20 05:10:30;;;;;;;3.55;2.78;;;;;;;9.67;54.95;99681.47;4967039;28;20034;-94
2023/02/20 05:12:59;;;;;;;3.05;2.30;;;;;;;9.67;54.07;99686.00;4966455;28;20037;-94
2023/02/20 05:15:25;;;;;;;6.20;2.00;;;;;;;9.67;54.22;99683.31;4967343;28;20468;-95
2023/02/20 05:17:51;;;;;;;3.50;2.10;;;;;;;9.56;54.40;99695.06;4967460;28;20085;-93
2023/02/20 05:20:16;;;;;;;4.53;2.72;;;;;;;9.68;53.99;99719.91;4965304;28;20026;-94
2023/02/20 05:22:44;;;;;;;4.05;2.60;;;;;;;9.64;53.51;99711.53;4965661;28;20089;-93
2023/02/20 05:25:10;;;;;;;5.22;2.40;;;;;;;9.77;53.80;99734.50;4966745;28;20053;-94
2023/02/20 05:27:46;;;;;;;4.75;2.88;;;;;;;9.83;53.35;99743.44;4966894;28;20027;-93
2023/02/20 05:30:29;;;;;;;5.82;2.97;;;;;;;9.76;52.96;99740.97;4970026;28;20404;-92
2023/02/20 05:32:55;;;;;;;5.35;3.33;;;;;;;9.57;53.35;99724.38;4986072;28;20050;-94
2023/02/20 05:35:21;;;;;;;6.90;4.72;;;;;;;9.68;53.68;99746.81;4965288;28;20026;-94
2023/02/20 05:37:46;;;;;;;4.15;2.88;;;;;;;9.59;53.31;99730.31;4964389;28;20058;-94
2023/02/20 05:40:12;;;;;;;4.40;3.40;;;;;;;9.70;53.65;99753.53;4965045;28;20033;-93
2023/02/20 05:43:20;;;;;;;4.20;2.97;;;;;;;9.62;53.59;99735.19;4972340;28;20020;-94
2023/02/20 05:49:02;;;;;;;4.65;3.60;;;;;;;9.59;54.20;99756.41;5396617;23;20130;-94
2023/02/20 05:51:30;;;;;;;5.38;3.92;;;;;;;9.77;54.42;99776.72;4956715;28;20068;-92
2023/02/20 05:54:11;;;;;;;;;;;;;;;;;;;;;
2023/02/20 05:57:01;;;;;;;5.47;3.78;;;;;;;9.76;54.98;99780.50;5334378;23;20122;-96
2023/02/20 06:30:52;;;;;;;11.77;4.35;;;;;;;10.04;48.90;99825.16;5104152;23;20069;-94
2023/02/20 06:33:45;;;;;;;3.00;2.10;;;;;;;9.99;47.93;99811.66;5036175;23;20058;-94
2023/02/20 06:53:41;;;;;;;3.15;2.22;;;;;;;10.27;47.40;99849.09;4960156;29;20093;-93
2023/02/20 06:56:32;;;;;;;3.45;2.25;;;;;;;10.28;47.28;99863.34;4952293;29;20031;-94
2023/02/20 06:59:08;;;;;;;3.93;2.37;;;;;;;10.26;47.15;99847.44;4965354;29;20470;-93
2023/02/20 07:01:42;;;;;;;3.03;2.15;;;;;;;10.26;46.71;99850.13;4954882;29;20058;-94
2023/02/20 07:04:55;;;;;;;;;;;;;;;;;;;;;
2023/02/20 07:25:10;;;;;;;;;;;;;;;;;;;;;
2023/02/20 07:30:49;;;;;;;3.72;2.42;;;;;;;10.55;45.38;99884.09;5578686;23;19932;-96
2023/02/20 07:33:25;;;;;;;17.52;10.80;;;;;;;10.57;45.73;99898.91;5003236;28;20057;-96
2023/02/20 07:44:47;;;;;;;5.10;2.90;;;;;;;10.50;45.95;99890.25;6039513;23;20280;-95
2023/02/20 08:01:56;;;;;;;2.10;1.60;;;;;;;10.76;43.87;99899.34;5694667;23;20104;-95
2023/02/20 08:10:23;;;;;;;3.03;2.05;;;;;;;10.39;45.05;99886.63;4978837;28;20091;-95
2023/02/20 08:23:45;;;;;;;2.90;2.05;;;;;;;10.51;43.94;99905.31;5126534;23;20137;-94
2023/02/20 08:32:24;;;;;;;6.45;3.42;;;;;;;10.35;44.49;99933.16;5674762;23;20995;-94
2023/02/20 08:35:03;;;;;;;;;;;;;;;;;;;;;
2023/02/20 08:37:37;;;;;;;4.55;2.63;;;;;;;10.58;43.56;99942.81;4977991;28;20113;-94
2023/02/20 08:40:07;;;;;;;5.60;2.95;;;;;;;10.78;43.62;99953.78;4949775;28;20172;-96
2023/02/20 08:42:33;;;;;;;5.63;3.10;;;;;;;10.89;43.39;99949.28;4952903;28;20090;-95
2023/02/20 08:45:02;;;;;;;4.43;2.75;;;;;;;11.17;43.22;99968.94;4953642;28;20081;-93
2023/02/20 08:47:37;;;;;;;5.05;3.40;;;;;;;11.26;42.65;99960.09;4955623;28;20101;-95
2023/02/20 08:50:43;;;;;;;6.38;3.20;;;;;;;11.44;42.36;99964.28;5021484;23;20046;-95
2023/02/20 08:53:26;;;;;;;8.30;3.88;;;;;;;11.52;42.63;99973.78;4975667;28;20482;-94
2023/02/20 08:58:45;;;;;;;3.53;2.10;;;;;;;11.46;41.68;99920.88;4986627;28;20062;-94
2023/02/20 09:01:23;;;;;;;3.85;2.38;;;;;;;11.49;41.35;99945.44;4986937;28;20039;-95
2023/02/20 09:04:18;;;;;;;2.25;1.92;;;;;;;11.35;41.25;99929.97;4974441;28;20011;-95
2023/02/20 09:06:48;;;;;;;3.38;2.15;;;;;;;11.37;42.03;99961.00;4944358;29;20093;-94
2023/02/20 09:09:37;;;;;;;3.03;2.20;;;;;;;11.42;41.93;99952.13;4913662;29;20080;-93
2023/02/20 09:12:31;;;;;;;3.35;1.95;;;;;;;11.47;41.75;99965.63;4949342;29;20554;-94
2023/02/20 09:15:18;;;;;;;2.85;2.20;;;;;;;11.26;41.83;99954.72;4917065;29;20059;-94
2023/02/20 09:18:32;;;;;;;;;;;;;;;;;;;;;
2023/02/20 09:24:33;;;;;;;2.83;2.10;;;;;;;11.18;42.19;99949.78;5952970;23;20296;-93
2023/02/20 09:33:01;;;;;;;3.08;2.00;;;;;;;11.03;42.12;99963.97;4980998;28;20122;-93
2023/02/20 09:36:00;;;;;;;4.22;2.00;;;;;;;11.15;42.19;99971.88;4935494;28;20545;-94
2023/02/20 09:38:38;;;;;;;3.13;1.83;;;;;;;11.18;41.86;99974.06;4927604;29;20052;-94
2023/02/20 09:41:22;;;;;;;3.80;1.85;;;;;;;11.33;41.78;99986.88;4915449;29;20032;-93
2023/02/20 09:46:27;;;;;;;4.57;2.10;;;;;;;10.98;42.46;99969.31;5313166;23;20113;-94
2023/02/20 09:49:26;;;;;;;2.13;1.60;;;;;;;10.70;42.54;99956.94;4936179;29;20042;-95
2023/02/20 09:52:27;;;;;;;2.70;2.05;;;;;;;10.89;42.76;99968.16;4918720;29;20036;-95
2023/02/20 09:55:05;;;;;;;4.05;2.10;;;;;;;10.63;43.32;99961.72;4913366;29;20031;-94
2023/02/20 10:02:34;;;;;;;4.15;2.50;;;;;;;10.39;43.65;99972.78;4883970;29;20041;-95
2023/02/20 10:08:50;;;;;;;3.17;2.00;;;;;;;10.47;43.15;99949.97;4900490;29;20051;-94
2023/02/20 10:24:46;;;;;;;2.65;1.80;;;;;;;10.80;42.49;99942.75;5468808;23;20034;-95
2023/02/20 10:35:22;;;;;;;3.58;2.13;;;;;;;11.12;40.65;99950.81;4980049;28;20050;-93
2023/02/20 10:37:56;;;;;;;4.38;2.95;;;;;;;11.11;41.36;99935.75;4956943;28;20062;-94
2023/02/20 10:40:42;;;;;;;6.03;2.60;;;;;;;11.15;41.65;99934.16;4939333;28;20058;-94
2023/02/20 10:43:13;;;;;;;4.78;2.50;;;;;;;11.38;41.20;99932.16;4952595;28;20042;-95
2023/02/20 10:52:36;;;;;;;2.83;2.15;;;;;;;11.46;40.43;99934.38;5021190;28;20049;-95
2023/02/20 11:07:41;;;;;;;3.72;2.53;;;;;;;11.83;39.86;99922.69;5328568;23;20084;-95
2023/02/20 11:14:29;;;;;;;4.65;3.00;;;;;;;11.96;39.69;99918.72;4863512;29;20089;-94
2023/02/20 11:30:32;;;;;;;2.17;1.60;;;;;;;12.03;38.11;99951.69;5017336;28;20061;-94
2023/02/20 11:33:14;;;;;;;2.50;1.77;;;;;;;12.04;38.18;99945.22;4977975;28;20419;-94
2023/02/20 11:50:28;;;;;;;4.03;2.33;;;;;;;11.95;38.86;99962.97;5547634;23;20409;-93
2023/02/20 11:53:31;;;;;;;11.25;3.95;;;;;;;12.01;38.57;99943.03;4969801;28;20030;-95
2023/02/20 12:00:13;;;;;;;5.28;2.63;;;;;;;11.90;38.33;99947.56;5010527;28;20119;-95
2023/02/20 12:03:39;;;;;;;3.38;1.73;;;;;;;11.73;39.19;99926.16;5131933;23;20499;-95
2023/02/20 12:07:07;;;;;;;5.25;2.60;;;;;;;11.76;38.98;99932.91;4942560;29;20110;-94
2023/02/20 12:13:37;;;;;;;;;;;;;;;;;;;;;
2023/02/20 12:23:22;;;;;;;3.22;2.25;;;;;;;11.82;38.11;99913.78;4952364;28;20100;-95
2023/02/20 12:26:22;;;;;;;5.07;2.28;;;;;;;11.93;37.86;99939.78;4976274;28;20032;-95
2023/02/20 12:29:27;;;;;;;6.90;2.58;;;;;;;11.80;37.76;99926.72;4992574;28;20029;-94
2023/02/20 12:32:31;;;;;;;2.35;1.60;;;;;;;11.92;37.33;99921.94;5214094;23;21788;-94
2023/02/20 12:36:00;;;;;;;3.17;1.92;;;;;;;12.00;37.28;99933.31;5002208;28;20094;-94
2023/02/20 12:42:48;;;;;;;3.30;1.95;;;;;;;12.16;37.28;99939.56;4881247;29;21080;-95
2023/02/20 12:49:28;;;;;;;;;;;;;;;;;;;;;
2023/02/20 12:52:37;;;;;;;2.72;1.98;;;;;;;12.33;36.70;99913.19;4924959;29;20055;-94
2023/02/20 12:56:01;;;;;;;;;;;;;;;;;;;;;
2023/02/20 12:59:08;;;;;;;2.70;1.88;;;;;;;12.46;35.62;99923.47;5166697;23;20265;-95
2023/02/20 13:06:53;;;;;;;;;;;;;;;;;;;;;
2023/02/20 13:12:37;;;;;;;3.17;1.60;;;;;;;12.30;35.04;99908.28;5127610;23;20050;-96
2023/02/20 13:23:00;;;;;;;;;;;;;;;;;;;;;
2023/02/20 13:26:28;;;;;;;2.50;1.77;;;;;;;12.61;34.92;99930.78;5098298;28;20091;-95
2023/02/20 13:30:00;;;;;;;;;;;;;;;;;;;;;
2023/02/20 13:32:39;;;;;;;2.05;1.45;;;;;;;12.53;35.52;99925.91;5036052;28;20029;-95
2023/02/20 13:35:47;;;;;;;2.37;1.70;;;;;;;12.52;35.25;99918.88;5020664;28;20030;-95
2023/02/20 14:01:11;;;;;;;3.30;1.53;;;;;;;12.61;34.39;99932.66;1232162;22;20551;-88
2023/02/20 14:03:37;;;;;;;7.45;1.98;;;;;;;12.60;34.18;99933.75;5011656;28;20054;-94
2023/02/20 14:06:16;;;;;;;8.45;5.10;;;;;;;12.57;34.74;99931.59;4993779;28;20480;-94
2023/02/20 14:09:03;;;;;;;4.40;2.15;;;;;;;12.55;34.20;99921.03;4977657;28;20412;-93
2023/02/20 14:11:42;;;;;;;1.90;1.40;;;;;;;12.56;34.35;99928.06;4950596;28;20045;-94
2023/02/20 14:23:39;;;;;;;3.40;2.05;;;;;;;12.41;33.85;99939.66;6098245;22;20020;-93
2023/02/20 14:26:19;;;;;;;3.58;2.10;;;;;;;12.26;34.47;99920.72;4956608;28;20041;-94
2023/02/20 14:28:49;;;;;;;4.00;2.20;;;;;;;12.21;33.84;99920.72;5039220;28;20028;-93
2023/02/20 14:31:32;;;;;;;6.95;2.22;;;;;;;12.21;34.06;99924.22;5024617;28;20024;-92
2023/02/20 14:34:10;;;;;;;2.35;1.80;;;;;;;12.19;34.15;99914.75;5007108;28;20071;-94
2023/02/20 14:36:44;;;;;;;7.70;3.80;;;;;;;12.29;34.30;99944.50;5009599;28;20112;-92
2023/02/20 14:39:54;;;;;;;5.57;3.08;;;;;;;12.26;34.29;99939.59;5024558;28;20029;-93
2023/02/20 14:42:29;;;;;;;5.72;2.00;;;;;;;12.03;34.59;99916.59;5025581;28;20041;-93
2023/02/20 14:45:09;;;;;;;5.30;2.88;;;;;;;12.13;34.71;99930.94;5012047;28;20044;-94
2023/02/20 14:47:36;;;;;;;4.40;2.58;;;;;;;12.01;34.55;99926.84;5013807;28;20029;-94
2023/02/20 14:50:21;;;;;;;3.70;2.55;;;;;;;11.95;33.96;99931.41;5023325;28;20029;-94
2023/02/20 14:53:25;;;;;;;3.83;2.10;;;;;;;11.98;33.10;99919.28;5008545;28;20466;-93
2023/02/20 14:55:54;;;;;;;4.80;2.60;;;;;;;12.05;32.58;99949.53;5029270;28;20033;-92
2023/02/20 14:58:22;;;;;;;4.57;2.88;;;;;;;12.01;32.48;99937.63;5000752;28;20460;-94
2023/02/20 15:00:57;;;;;;;5.18;2.35;;;;;;;11.97;32.41;99941.94;5005661;28;20093;-95
2023/02/20 15:03:33;;;;;;;3.15;1.98;;;;;;;11.72;33.12;99932.59;5008010;28;20077;-95
2023/02/20 15:06:00;;;;;;;4.63;2.70;;;;;;;11.82;32.38;99945.34;5024081;28;20029;-94
2023/02/20 15:08:34;;;;;;;6.50;3.67;;;;;;;11.67;32.98;99927.19;5008246;28;20032;-94
2023/02/20 15:11:11;;;;;;;4.32;2.58;;;;;;;11.69;33.00;99922.34;5036130;28;20118;-95
2023/02/20 15:13:44;;;;;;;19.88;9.43;;;;;;;11.84;33.03;99935.09;5009078;28;20033;-93
2023/02/20 15:16:16;;;;;;;5.13;2.33;;;;;;;11.81;32.75;99939.16;5024479;28;20384;-93
2023/02/20 15:18:57;;;;;;;5.53;1.80;;;;;;;11.58;32.72;99929.59;5007976;28;20036;-93
2023/02/20 15:21:46;;;;;;;;;;;;;;;;;;;;;
2023/02/20 15:24:35;;;;;;;6.57;3.80;;;;;;;11.64;32.63;99950.13;5007727;28;20153;-94
2023/02/20 15:27:34;;;;;;;4.78;2.13;;;;;;;11.40;32.19;99921.94;5013346;28;20065;-96
2023/02/20 15:30:22;;;;;;;3.45;2.08;;;;;;;11.37;32.12;99955.63;4973150;28;20037;-94
2023/02/20 15:32:51;;;;;;;4.30;2.50;;;;;;;11.16;32.29;99926.88;5005629;28;20068;-94
2023/02/20 15:35:19;;;;;;;6.50;3.05;;;;;;;11.10;32.32;99926.84;4987709;28;20410;-93
2023/02/20 15:37:45;;;;;;;6.55;2.80;;;;;;;11.19;32.75;99946.03;5003149;28;20414;-93
2023/02/20 15:40:19;;;;;;;3.67;2.33;;;;;;;11.11;32.79;99941.13;4987652;28;20050;-93
2023/02/20 15:42:58;;;;;;;;;;;;;;;;;;;;;
2023/02/20 15:45:31;;;;;;;3.97;2.20;;;;;;;10.74;33.36;99914.16;5006818;28;20112;-92
2023/02/20 15:48:00;;;;;;;2.90;2.08;;;;;;;10.87;33.47;99946.03;4987960;28;20494;-93
2023/02/20 15:50:28;;;;;;;3.92;2.67;;;;;;;10.91;33.70;99950.69;4988179;28;20123;-93
2023/02/20 15:53:02;;;;;;;4.63;2.75;;;;;;;10.77;34.06;99932.47;4988914;28;20411;-96
2023/02/20 15:55:33;;;;;;;6.70;3.67;;;;;;;10.77;34.13;99943.25;5012486;28;20026;-93
2023/02/20 15:57:59;;;;;;;4.85;3.10;;;;;;;10.70;34.57;99949.66;4987566;28;20021;-92
2023/02/20 16:00:35;;;;;;;6.10;2.90;;;;;;;10.62;34.66;99942.03;5003355;28;20033;-93
2023/02/20 16:10:28;;;;;;;6.53;3.77;;;;;;;10.62;35.31;99960.91;5016250;28;20028;-92
2023/02/20 16:12:55;;;;;;;6.95;3.00;;;;;;;10.58;34.99;99953.59;5017232;28;20044;-93
2023/02/20 16:15:25;;;;;;;7.80;3.47;;;;;;;10.45;35.50;99949.41;4966243;28;20028;-93
2023/02/20 16:17:51;;;;;;;5.13;3.25;;;;;;;10.50;35.39;99962.94;4983882;28;20128;-92
2023/02/20 16:23:19;;;;;;;23.60;12.52;;;;;;;10.50;35.29;99962.94;4988353;28;20114;-93
2023/02/20 16:25:45;;;;;;;12.45;5.10;;;;;;;10.47;35.35;99958.88;4963002;28;20027;-93
2023/02/20 16:28:12;;;;;;;10.85;6.05;;;;;;;10.40;35.15;99950.19;4948313;28;20469;-92
2023/02/20 16:30:39;;;;;;;8.25;4.85;;;;;;;10.44;34.95;99945.13;4963107;28;20106;-93
2023/02/20 16:33:23;;;;;;;9.05;4.43;;;;;;;10.49;34.72;99945.16;4962048;28;20567;-93
2023/02/20 16:35:50;;;;;;;7.00;4.32;;;;;;;10.35;35.16;99942.03;4963747;28;20033;-93
2023/02/20 16:38:19;;;;;;;12.50;6.53;;;;;;;10.23;35.80;99944.03;4963356;28;20117;-92
2023/02/20 16:40:44;;;;;;;11.10;5.68;;;;;;;10.42;35.54;99963.41;4962584;28;20022;-91
2023/02/20 16:43:19;;;;;;;8.65;5.05;;;;;;;10.46;34.88;99968.00;4946068;28;20113;-92
2023/02/20 16:45:48;;;;;;;6.45;4.00;;;;;;;10.17;35.41;99937.78;4964708;28;20057;-91
2023/02/20 16:48:15;;;;;;;12.77;5.63;;;;;;;10.18;35.58;99936.72;4963339;28;20073;-91
2023/02/20 16:51:05;;;;;;;7.38;4.20;;;;;;;10.25;35.30;99948.09;4961402;28;20018;-93
2023/02/20 16:53:31;;;;;;;13.45;5.65;;;;;;;10.11;35.77;99931.53;4963997;28;20026;-91
2023/02/20 16:55:56;;;;;;;13.73;4.35;;;;;;;10.20;35.74;99945.34;4961957;28;20038;-92
2023/02/20 16:58:22;;;;;;;11.95;4.93;;;;;;;10.20;35.80;99941.84;4946050;28;20117;-93
2023/02/20 17:00:50;;;;;;;15.43;6.43;;;;;;;10.13;35.89;99955.50;4961897;28;20126;-93
2023/02/20 17:03:15;;;;;;;9.50;5.50;;;;;;;10.18;36.22;99957.44;4962075;28;20026;-92
2023/02/20 17:05:41;;;;;;;13.98;6.13;;;;;;;10.07;36.58;99951.94;4961957;28;20037;-92
2023/02/20 17:08:07;;;;;;;9.48;5.53;;;;;;;10.07;36.33;99954.63;4961262;28;20041;-92
2023/02/20 17:10:33;;;;;;;13.52;5.60;;;;;;;10.08;36.46;99950.84;4961993;28;20050;-95
2023/02/20 17:12:59;;;;;;;10.55;6.07;;;;;;;10.00;36.52;99948.63;4962269;28;20038;-93
2023/02/20 17:15:25;;;;;;;13.90;5.53;;;;;;;10.01;37.81;99949.44;4961660;28;20027;-93
2023/02/20 17:17:52;;;;;;;14.45;5.30;;;;;;;10.09;37.48;99955.19;4962017;28;20022;-93
2023/02/20 17:20:24;;;;;;;8.27;4.63;;;;;;;10.02;37.82;99943.81;4962260;28;20073;-93
2023/02/20 17:22:50;;;;;;;23.10;5.53;;;;;;;9.82;38.05;99928.22;4961709;28;20018;-92
2023/02/20 17:25:19;;;;;;;13.73;6.00;;;;;;;9.93;38.22;99950.66;4964646;28;20081;-92
2023/02/20 17:27:44;;;;;;;11.30;6.90;;;;;;;9.89;38.21;99947.66;4965271;28;20121;-92
2023/02/20 17:30:23;;;;;;;10.43;6.25;;;;;;;9.91;37.43;99960.88;4980633;28;20504;-92
2023/02/20 17:32:49;;;;;;;8.95;5.47;;;;;;;9.74;37.74;99950.16;4998650;28;20025;-93
2023/02/20 17:35:15;;;;;;;10.85;5.78;;;;;;;9.69;38.23;99950.91;4965434;28;20415;-94
2023/02/20 17:37:41;;;;;;;12.07;5.60;;;;;;;9.75;37.73;99961.72;4965267;28;20479;-92
2023/02/20 17:40:07;;;;;;;13.00;5.82;;;;;;;9.64;37.78;99958.09;4980052;28;20040;-92
2023/02/20 17:42:33;;;;;;;8.57;4.95;;;;;;;9.61;37.64;99953.22;4996393;28;20030;-92